sensor_id;sensor_type;location;lat;lon;timestamp;temperature;humidity
3262;DHT22;1643;47.746;9.000;2022-12-24T00:02:14;12.40;99.90
3262;DHT22;1643;47.746;9.000;2022-12-24T00:04:39;12.30;99.90
3262;DHT22;1643;47.746;9.000;2022-12-24T00:07:05;12.20;99.90
3262;DHT22;1643;47.746;9.000;2022-12-24T00:09:31;12.30;99.90
3262;DHT22;1643;47.746;9.000;2022-12-24T00:11:56;12.30;99.90
3262;DHT22;1643;47.746;9.000;2022-12-24T00:14:22;12.30;99.90
3262;DHT22;1643;47.746;9.000;2022-12-24T00:16:47;12.30;99.90
3262;DHT22;1643;47.746;9.000;2022-12-24T00:19:13;12.40;99.90
3262;DHT22;1643;47.746;9.000;2022-12-24T00:21:39;12.30;99.90
3262;DHT22;1643;47.746;9.000;2022-12-24T00:24:04;12.30;99.90
3262;DHT22;1643;47.746;9.000;2022-12-24T00:26:31;12.30;99.90
3262;DHT22;1643;47.746;9.000;2022-12-24T00:28:57;12.20;99.90
3262;DHT22;1643;47.746;9.000;2022-12-24T00:31:23;12.30;99.90
3262;DHT22;1643;47.746;9.000;2022-12-24T00:33:49;12.30;99.90
3262;DHT22;1643;47.746;9.000;2022-12-24T00:36:15;12.20;99.90
3262;DHT22;1643;47.746;9.000;2022-12-24T00:38:41;12.30;99.90
3262;DHT22;1643;47.746;9.000;2022-12-24T00:41:08;12.10;99.90
3262;DHT22;1643;47.746;9.000;2022-12-24T00:43:53;12.30;99.90
3262;DHT22;1643;47.746;9.000;2022-12-24T00:46:19;12.20;99.90
3262;DHT22;1643;47.746;9.000;2022-12-24T00:48:46;12.20;99.90
3262;DHT22;1643;47.746;9.000;2022-12-24T00:51:11;12.20;99.90
3262;DHT22;1643;47.746;9.000;2022-12-24T00:53:37;12.30;99.90
3262;DHT22;1643;47.746;9.000;2022-12-24T00:56:03;12.20;99.90
3262;DHT22;1643;47.746;9.000;2022-12-24T00:58:28;12.10;99.90
3262;DHT22;1643;47.746;9.000;2022-12-24T01:00:54;12.20;99.90
3262;DHT22;1643;47.746;9.000;2022-12-24T01:03:19;12.20;99.90
3262;DHT22;1643;47.746;9.000;2022-12-24T01:05:45;12.20;99.90
3262;DHT22;1643;47.746;9.000;2022-12-24T01:08:12;12.30;99.90
3262;DHT22;1643;47.746;9.000;2022-12-24T01:10:38;12.30;99.90
3262;DHT22;1643;47.746;9.000;2022-12-24T01:13:04;12.20;99.90
3262;DHT22;1643;47.746;9.000;2022-12-24T01:15:29;12.40;99.90
3262;DHT22;1643;47.746;9.000;2022-12-24T01:17:55;12.30;99.90
3262;DHT22;1643;47.746;9.000;2022-12-24T01:20:21;12.20;99.90
3262;DHT22;1643;47.746;9.000;2022-12-24T01:22:46;12.20;99.90
3262;DHT22;1643;47.746;9.000;2022-12-24T01:25:13;12.30;99.90
3262;DHT22;1643;47.746;9.000;2022-12-24T01:27:39;12.20;99.90
3262;DHT22;1643;47.746;9.000;2022-12-24T01:30:06;12.30;99.90
3262;DHT22;1643;47.746;9.000;2022-12-24T01:32:32;12.20;99.90
3262;DHT22;1643;47.746;9.000;2022-12-24T01:34:58;12.20;99.90
3262;DHT22;1643;47.746;9.000;2022-12-24T01:37:24;12.20;99.90
3262;DHT22;1643;47.746;9.000;2022-12-24T01:39:50;12.30;99.90
3262;DHT22;1643;47.746;9.000;2022-12-24T01:42:21;12.30;99.90
3262;DHT22;1643;47.746;9.000;2022-12-24T01:48:46;12.30;99.90
3262;DHT22;1643;47.746;9.000;2022-12-24T01:54:24;12.30;99.90
3262;DHT22;1643;47.746;9.000;2022-12-24T01:56:53;12.30;99.90
3262;DHT22;1643;47.746;9.000;2022-12-24T01:59:20;12.20;99.90
3262;DHT22;1643;47.746;9.000;2022-12-24T02:01:47;12.20;99.90
3262;DHT22;1643;47.746;9.000;2022-12-24T02:04:41;12.50;99.90
3262;DHT22;1643;47.746;9.000;2022-12-24T02:07:08;12.30;99.90
3262;DHT22;1643;47.746;9.000;2022-12-24T02:09:35;12.30;99.90
3262;DHT22;1643;47.746;9.000;2022-12-24T02:12:01;12.20;99.90
3262;DHT22;1643;47.746;9.000;2022-12-24T02:14:29;12.30;99.90
3262;DHT22;1643;47.746;9.000;2022-12-24T02:23:01;12.30;99.90
3262;DHT22;1643;47.746;9.000;2022-12-24T02:25:57;12.30;99.90
3262;DHT22;1643;47.746;9.000;2022-12-24T02:31:05;12.20;99.90
3262;DHT22;1643;47.746;9.000;2022-12-24T02:36:38;12.20;99.90
3262;DHT22;1643;47.746;9.000;2022-12-24T02:39:09;12.20;99.90
3262;DHT22;1643;47.746;9.000;2022-12-24T02:41:43;12.30;99.90
3262;DHT22;1643;47.746;9.000;2022-12-24T02:44:30;12.10;99.90
3262;DHT22;1643;47.746;9.000;2022-12-24T02:46:59;12.20;99.90
3262;DHT22;1643;47.746;9.000;2022-12-24T02:49:25;12.20;99.90
3262;DHT22;1643;47.746;9.000;2022-12-24T02:51:50;12.20;99.90
3262;DHT22;1643;47.746;9.000;2022-12-24T02:54:17;12.10;99.90
3262;DHT22;1643;47.746;9.000;2022-12-24T02:57:16;12.10;99.90
3262;DHT22;1643;47.746;9.000;2022-12-24T03:02:36;12.10;99.90
3262;DHT22;1643;47.746;9.000;2022-12-24T03:07:47;12.20;99.90
3262;DHT22;1643;47.746;9.000;2022-12-24T03:10:24;12.20;99.90
3262;DHT22;1643;47.746;9.000;2022-12-24T03:12:58;12.20;99.90
3262;DHT22;1643;47.746;9.000;2022-12-24T03:15:26;12.20;99.90
3262;DHT22;1643;47.746;9.000;2022-12-24T03:17:56;12.20;99.90
3262;DHT22;1643;47.746;9.000;2022-12-24T03:20:34;12.10;99.90
3262;DHT22;1643;47.746;9.000;2022-12-24T03:23:00;12.10;99.90
3262;DHT22;1643;47.746;9.000;2022-12-24T03:25:26;12.10;99.90
3262;DHT22;1643;47.746;9.000;2022-12-24T03:27:53;12.10;99.90
3262;DHT22;1643;47.746;9.000;2022-12-24T03:30:20;12.20;99.90
3262;DHT22;1643;47.746;9.000;2022-12-24T03:32:46;12.20;99.90
3262;DHT22;1643;47.746;9.000;2022-12-24T03:35:12;12.10;99.90
3262;DHT22;1643;47.746;9.000;2022-12-24T03:37:38;12.10;99.90
3262;DHT22;1643;47.746;9.000;2022-12-24T03:40:05;12.10;99.90
3262;DHT22;1643;47.746;9.000;2022-12-24T03:42:31;12.00;99.90
3262;DHT22;1643;47.746;9.000;2022-12-24T03:44:56;12.00;99.90
3262;DHT22;1643;47.746;9.000;2022-12-24T03:47:22;12.00;99.90
3262;DHT22;1643;47.746;9.000;2022-12-24T03:49:48;12.10;99.90
3262;DHT22;1643;47.746;9.000;2022-12-24T03:52:13;12.10;99.90
3262;DHT22;1643;47.746;9.000;2022-12-24T03:54:39;12.00;99.90
3262;DHT22;1643;47.746;9.000;2022-12-24T03:57:05;12.00;99.90
3262;DHT22;1643;47.746;9.000;2022-12-24T03:59:30;11.90;99.90
3262;DHT22;1643;47.746;9.000;2022-12-24T04:01:56;11.90;99.90
3262;DHT22;1643;47.746;9.000;2022-12-24T04:04:22;11.90;99.90
3262;DHT22;1643;47.746;9.000;2022-12-24T04:06:47;11.90;99.90
3262;DHT22;1643;47.746;9.000;2022-12-24T04:09:13;12.10;99.90
3262;DHT22;1643;47.746;9.000;2022-12-24T04:11:38;12.10;99.90
3262;DHT22;1643;47.746;9.000;2022-12-24T04:14:04;12.00;99.90
3262;DHT22;1643;47.746;9.000;2022-12-24T04:16:30;11.90;99.90
3262;DHT22;1643;47.746;9.000;2022-12-24T04:18:55;11.90;99.90
3262;DHT22;1643;47.746;9.000;2022-12-24T04:21:21;11.80;99.90
3262;DHT22;1643;47.746;9.000;2022-12-24T04:23:47;11.80;99.90
3262;DHT22;1643;47.746;9.000;2022-12-24T04:26:13;11.90;99.90
3262;DHT22;1643;47.746;9.000;2022-12-24T04:28:40;11.80;99.90
3262;DHT22;1643;47.746;9.000;2022-12-24T04:31:09;11.90;99.90
3262;DHT22;1643;47.746;9.000;2022-12-24T04:33:36;12.00;99.90
3262;DHT22;1643;47.746;9.000;2022-12-24T04:36:03;11.90;99.90
3262;DHT22;1643;47.746;9.000;2022-12-24T04:38:29;12.00;99.90
3262;DHT22;1643;47.746;9.000;2022-12-24T04:41:04;11.90;99.90
3262;DHT22;1643;47.746;9.000;2022-12-24T04:43:30;11.90;99.90
3262;DHT22;1643;47.746;9.000;2022-12-24T04:46:06;11.80;99.90
3262;DHT22;1643;47.746;9.000;2022-12-24T04:48:32;11.80;99.90
3262;DHT22;1643;47.746;9.000;2022-12-24T04:51:04;11.70;99.90
3262;DHT22;1643;47.746;9.000;2022-12-24T04:53:30;11.70;99.90
3262;DHT22;1643;47.746;9.000;2022-12-24T04:55:56;11.70;99.90
3262;DHT22;1643;47.746;9.000;2022-12-24T04:58:22;11.70;99.90
3262;DHT22;1643;47.746;9.000;2022-12-24T05:00:48;11.60;99.90
3262;DHT22;1643;47.746;9.000;2022-12-24T05:03:13;11.60;99.90
3262;DHT22;1643;47.746;9.000;2022-12-24T05:05:39;11.60;99.90
3262;DHT22;1643;47.746;9.000;2022-12-24T05:08:05;11.60;99.90
3262;DHT22;1643;47.746;9.000;2022-12-24T05:10:30;11.60;99.90
3262;DHT22;1643;47.746;9.000;2022-12-24T05:12:56;11.60;99.90
3262;DHT22;1643;47.746;9.000;2022-12-24T05:15:22;11.60;99.90
3262;DHT22;1643;47.746;9.000;2022-12-24T05:17:48;11.60;99.90
3262;DHT22;1643;47.746;9.000;2022-12-24T05:20:14;11.60;99.90
3262;DHT22;1643;47.746;9.000;2022-12-24T05:22:40;11.60;99.90
3262;DHT22;1643;47.746;9.000;2022-12-24T05:25:26;11.60;99.90
3262;DHT22;1643;47.746;9.000;2022-12-24T05:28:11;11.70;99.90
3262;DHT22;1643;47.746;9.000;2022-12-24T05:30:37;11.70;99.90
3262;DHT22;1643;47.746;9.000;2022-12-24T05:33:03;11.60;99.90
3262;DHT22;1643;47.746;9.000;2022-12-24T05:35:28;11.60;99.90
3262;DHT22;1643;47.746;9.000;2022-12-24T05:37:57;11.60;99.90
3262;DHT22;1643;47.746;9.000;2022-12-24T05:40:22;11.60;99.90
3262;DHT22;1643;47.746;9.000;2022-12-24T05:42:49;11.50;99.90
3262;DHT22;1643;47.746;9.000;2022-12-24T05:45:15;11.60;99.90
3262;DHT22;1643;47.746;9.000;2022-12-24T05:47:40;11.70;99.90
3262;DHT22;1643;47.746;9.000;2022-12-24T05:50:06;11.60;99.90
3262;DHT22;1643;47.746;9.000;2022-12-24T05:52:32;11.60;99.90
3262;DHT22;1643;47.746;9.000;2022-12-24T05:54:58;11.60;99.90
3262;DHT22;1643;47.746;9.000;2022-12-24T05:57:23;11.50;99.90
3262;DHT22;1643;47.746;9.000;2022-12-24T05:59:49;11.60;99.90
3262;DHT22;1643;47.746;9.000;2022-12-24T06:02:15;11.60;99.90
3262;DHT22;1643;47.746;9.000;2022-12-24T06:04:40;11.50;99.90
3262;DHT22;1643;47.746;9.000;2022-12-24T06:07:06;11.50;99.90
3262;DHT22;1643;47.746;9.000;2022-12-24T06:09:31;11.40;99.90
3262;DHT22;1643;47.746;9.000;2022-12-24T06:11:57;11.50;99.90
3262;DHT22;1643;47.746;9.000;2022-12-24T06:14:23;11.50;99.90
3262;DHT22;1643;47.746;9.000;2022-12-24T06:16:48;11.50;99.90
3262;DHT22;1643;47.746;9.000;2022-12-24T06:19:14;11.50;99.90
3262;DHT22;1643;47.746;9.000;2022-12-24T06:21:39;11.40;99.90
3262;DHT22;1643;47.746;9.000;2022-12-24T06:24:05;11.40;99.90
3262;DHT22;1643;47.746;9.000;2022-12-24T06:26:31;11.40;99.90
3262;DHT22;1643;47.746;9.000;2022-12-24T06:28:56;11.40;99.90
3262;DHT22;1643;47.746;9.000;2022-12-24T06:31:22;11.30;99.90
3262;DHT22;1643;47.746;9.000;2022-12-24T06:33:49;11.40;99.90
3262;DHT22;1643;47.746;9.000;2022-12-24T06:36:22;11.50;99.90
3262;DHT22;1643;47.746;9.000;2022-12-24T06:38:49;11.40;99.90
3262;DHT22;1643;47.746;9.000;2022-12-24T06:41:15;11.40;99.90
3262;DHT22;1643;47.746;9.000;2022-12-24T06:43:46;11.30;99.90
3262;DHT22;1643;47.746;9.000;2022-12-24T06:46:12;11.30;99.90
3262;DHT22;1643;47.746;9.000;2022-12-24T06:48:38;11.30;99.90
3262;DHT22;1643;47.746;9.000;2022-12-24T06:51:03;11.30;99.90
3262;DHT22;1643;47.746;9.000;2022-12-24T06:53:30;11.30;99.90
3262;DHT22;1643;47.746;9.000;2022-12-24T06:56:07;11.20;99.90
3262;DHT22;1643;47.746;9.000;2022-12-24T06:58:34;11.30;99.90
3262;DHT22;1643;47.746;9.000;2022-12-24T07:01:01;11.20;99.90
3262;DHT22;1643;47.746;9.000;2022-12-24T07:03:27;11.30;99.90
3262;DHT22;1643;47.746;9.000;2022-12-24T07:05:53;11.30;99.90
3262;DHT22;1643;47.746;9.000;2022-12-24T07:08:19;11.30;99.90
3262;DHT22;1643;47.746;9.000;2022-12-24T07:10:44;11.30;99.90
3262;DHT22;1643;47.746;9.000;2022-12-24T07:13:10;11.30;99.90
3262;DHT22;1643;47.746;9.000;2022-12-24T07:15:36;11.30;99.90
3262;DHT22;1643;47.746;9.000;2022-12-24T07:18:01;11.30;99.90
3262;DHT22;1643;47.746;9.000;2022-12-24T07:20:27;11.30;99.90
3262;DHT22;1643;47.746;9.000;2022-12-24T07:22:52;11.30;99.90
3262;DHT22;1643;47.746;9.000;2022-12-24T07:25:18;11.30;99.90
3262;DHT22;1643;47.746;9.000;2022-12-24T07:27:43;11.20;99.90
3262;DHT22;1643;47.746;9.000;2022-12-24T07:30:09;11.30;99.90
3262;DHT22;1643;47.746;9.000;2022-12-24T07:32:35;11.30;99.90
3262;DHT22;1643;47.746;9.000;2022-12-24T07:35:01;11.20;99.90
3262;DHT22;1643;47.746;9.000;2022-12-24T07:37:27;11.20;99.90
3262;DHT22;1643;47.746;9.000;2022-12-24T07:39:53;11.30;99.90
3262;DHT22;1643;47.746;9.000;2022-12-24T07:42:18;11.20;99.90
3262;DHT22;1643;47.746;9.000;2022-12-24T07:44:44;11.20;99.90
3262;DHT22;1643;47.746;9.000;2022-12-24T07:47:10;11.20;99.90
3262;DHT22;1643;47.746;9.000;2022-12-24T07:49:35;11.30;99.90
3262;DHT22;1643;47.746;9.000;2022-12-24T07:52:01;11.20;99.90
3262;DHT22;1643;47.746;9.000;2022-12-24T07:54:27;11.20;99.90
3262;DHT22;1643;47.746;9.000;2022-12-24T07:56:53;11.20;99.90
3262;DHT22;1643;47.746;9.000;2022-12-24T07:59:19;11.10;99.90
3262;DHT22;1643;47.746;9.000;2022-12-24T08:01:45;11.10;99.90
3262;DHT22;1643;47.746;9.000;2022-12-24T08:04:12;11.00;99.90
3262;DHT22;1643;47.746;9.000;2022-12-24T08:06:37;11.00;99.90
3262;DHT22;1643;47.746;9.000;2022-12-24T08:09:03;11.00;99.90
3262;DHT22;1643;47.746;9.000;2022-12-24T08:11:29;10.90;99.90
3262;DHT22;1643;47.746;9.000;2022-12-24T08:13:55;11.00;99.90
3262;DHT22;1643;47.746;9.000;2022-12-24T08:16:20;10.90;99.90
3262;DHT22;1643;47.746;9.000;2022-12-24T08:18:46;10.90;99.90
3262;DHT22;1643;47.746;9.000;2022-12-24T08:21:11;10.90;99.90
3262;DHT22;1643;47.746;9.000;2022-12-24T08:23:37;10.90;99.90
3262;DHT22;1643;47.746;9.000;2022-12-24T08:26:06;10.90;99.90
3262;DHT22;1643;47.746;9.000;2022-12-24T08:28:32;10.80;99.90
3262;DHT22;1643;47.746;9.000;2022-12-24T08:30:58;10.80;99.90
3262;DHT22;1643;47.746;9.000;2022-12-24T08:33:23;10.70;99.90
3262;DHT22;1643;47.746;9.000;2022-12-24T08:35:51;10.70;99.90
3262;DHT22;1643;47.746;9.000;2022-12-24T08:38:18;10.60;99.90
3262;DHT22;1643;47.746;9.000;2022-12-24T08:40:44;10.60;99.90
3262;DHT22;1643;47.746;9.000;2022-12-24T08:43:13;10.60;99.90
3262;DHT22;1643;47.746;9.000;2022-12-24T08:45:38;10.60;99.90
3262;DHT22;1643;47.746;9.000;2022-12-24T08:48:05;10.50;99.90
3262;DHT22;1643;47.746;9.000;2022-12-24T08:50:31;10.50;99.90
3262;DHT22;1643;47.746;9.000;2022-12-24T08:52:57;10.50;99.90
3262;DHT22;1643;47.746;9.000;2022-12-24T08:55:23;10.60;99.90
3262;DHT22;1643;47.746;9.000;2022-12-24T08:57:48;10.60;99.90
3262;DHT22;1643;47.746;9.000;2022-12-24T09:00:14;10.50;99.90
3262;DHT22;1643;47.746;9.000;2022-12-24T09:02:40;10.40;99.90
3262;DHT22;1643;47.746;9.000;2022-12-24T09:05:06;10.50;99.90
3262;DHT22;1643;47.746;9.000;2022-12-24T09:07:31;10.50;99.90
3262;DHT22;1643;47.746;9.000;2022-12-24T09:09:57;10.50;99.90
3262;DHT22;1643;47.746;9.000;2022-12-24T09:12:23;10.50;99.90
3262;DHT22;1643;47.746;9.000;2022-12-24T09:14:50;10.50;99.90
3262;DHT22;1643;47.746;9.000;2022-12-24T09:17:16;10.50;99.90
3262;DHT22;1643;47.746;9.000;2022-12-24T09:19:41;10.60;99.90
3262;DHT22;1643;47.746;9.000;2022-12-24T09:22:07;10.60;99.90
3262;DHT22;1643;47.746;9.000;2022-12-24T09:24:33;10.60;99.90
3262;DHT22;1643;47.746;9.000;2022-12-24T09:27:00;10.70;99.90
3262;DHT22;1643;47.746;9.000;2022-12-24T09:29:27;10.60;99.90
3262;DHT22;1643;47.746;9.000;2022-12-24T09:31:52;10.70;99.90
3262;DHT22;1643;47.746;9.000;2022-12-24T09:34:19;10.70;99.90
3262;DHT22;1643;47.746;9.000;2022-12-24T09:36:45;10.80;99.90
3262;DHT22;1643;47.746;9.000;2022-12-24T09:39:11;10.70;99.90
3262;DHT22;1643;47.746;9.000;2022-12-24T09:47:31;10.70;99.90
3262;DHT22;1643;47.746;9.000;2022-12-24T09:50:01;10.80;99.90
3262;DHT22;1643;47.746;9.000;2022-12-24T09:52:40;10.80;99.90
3262;DHT22;1643;47.746;9.000;2022-12-24T09:55:24;10.80;99.90
3262;DHT22;1643;47.746;9.000;2022-12-24T09:57:53;10.70;99.90
3262;DHT22;1643;47.746;9.000;2022-12-24T10:00:31;10.70;99.90
3262;DHT22;1643;47.746;9.000;2022-12-24T10:02:57;10.70;99.90
3262;DHT22;1643;47.746;9.000;2022-12-24T10:05:40;10.80;99.90
3262;DHT22;1643;47.746;9.000;2022-12-24T10:08:19;10.80;99.90
3262;DHT22;1643;47.746;9.000;2022-12-24T10:10:53;10.80;99.90
3262;DHT22;1643;47.746;9.000;2022-12-24T10:13:32;10.80;99.90
3262;DHT22;1643;47.746;9.000;2022-12-24T10:19:13;10.70;99.90
3262;DHT22;1643;47.746;9.000;2022-12-24T10:22:07;10.70;99.90
3262;DHT22;1643;47.746;9.000;2022-12-24T10:24:57;10.70;99.90
3262;DHT22;1643;47.746;9.000;2022-12-24T10:27:32;10.70;99.90
3262;DHT22;1643;47.746;9.000;2022-12-24T10:30:05;10.80;99.90
3262;DHT22;1643;47.746;9.000;2022-12-24T10:32:33;10.70;99.90
3262;DHT22;1643;47.746;9.000;2022-12-24T10:35:05;10.80;99.90
3262;DHT22;1643;47.746;9.000;2022-12-24T10:37:33;10.80;99.90
3262;DHT22;1643;47.746;9.000;2022-12-24T10:39:59;10.80;99.90
3262;DHT22;1643;47.746;9.000;2022-12-24T10:42:41;10.80;99.90
3262;DHT22;1643;47.746;9.000;2022-12-24T10:45:16;10.80;99.90
3262;DHT22;1643;47.746;9.000;2022-12-24T10:47:43;10.70;99.90
3262;DHT22;1643;47.746;9.000;2022-12-24T10:50:32;10.80;99.90
3262;DHT22;1643;47.746;9.000;2022-12-24T10:53:16;10.80;99.90
3262;DHT22;1643;47.746;9.000;2022-12-24T10:55:43;10.80;99.90
3262;DHT22;1643;47.746;9.000;2022-12-24T10:58:18;10.80;99.90
3262;DHT22;1643;47.746;9.000;2022-12-24T11:00:51;10.80;99.90
3262;DHT22;1643;47.746;9.000;2022-12-24T11:05:43;10.80;99.90
3262;DHT22;1643;47.746;9.000;2022-12-24T11:08:15;10.80;99.90
3262;DHT22;1643;47.746;9.000;2022-12-24T11:11:02;10.80;99.90
3262;DHT22;1643;47.746;9.000;2022-12-24T11:18:32;10.80;99.90
3262;DHT22;1643;47.746;9.000;2022-12-24T11:20:59;10.80;99.90
3262;DHT22;1643;47.746;9.000;2022-12-24T11:23:26;10.80;99.90
3262;DHT22;1643;47.746;9.000;2022-12-24T11:25:53;10.80;99.90
3262;DHT22;1643;47.746;9.000;2022-12-24T11:28:23;10.80;99.90
3262;DHT22;1643;47.746;9.000;2022-12-24T11:33:26;10.80;99.90
3262;DHT22;1643;47.746;9.000;2022-12-24T11:35:55;10.90;99.90
3262;DHT22;1643;47.746;9.000;2022-12-24T11:38:24;10.90;99.90
3262;DHT22;1643;47.746;9.000;2022-12-24T11:40:58;10.90;99.90
3262;DHT22;1643;47.746;9.000;2022-12-24T11:43:25;10.80;99.90
3262;DHT22;1643;47.746;9.000;2022-12-24T11:46:19;10.90;99.90
3262;DHT22;1643;47.746;9.000;2022-12-24T11:48:46;10.80;99.90
3262;DHT22;1643;47.746;9.000;2022-12-24T11:51:26;10.80;99.90
3262;DHT22;1643;47.746;9.000;2022-12-24T11:54:15;10.80;99.90
3262;DHT22;1643;47.746;9.000;2022-12-24T11:56:52;10.80;99.90
3262;DHT22;1643;47.746;9.000;2022-12-24T11:59:35;10.80;99.90
3262;DHT22;1643;47.746;9.000;2022-12-24T12:02:17;10.90;99.90
3262;DHT22;1643;47.746;9.000;2022-12-24T12:04:47;10.80;99.90
3262;DHT22;1643;47.746;9.000;2022-12-24T12:07:29;10.90;99.90
3262;DHT22;1643;47.746;9.000;2022-12-24T12:12:41;10.80;99.90
3262;DHT22;1643;47.746;9.000;2022-12-24T12:17:45;11.00;99.90
3262;DHT22;1643;47.746;9.000;2022-12-24T12:25:33;11.00;99.90
3262;DHT22;1643;47.746;9.000;2022-12-24T12:28:02;11.00;99.90
3262;DHT22;1643;47.746;9.000;2022-12-24T12:30:31;11.00;99.90
3262;DHT22;1643;47.746;9.000;2022-12-24T12:33:03;11.10;99.90
3262;DHT22;1643;47.746;9.000;2022-12-24T12:35:37;11.10;99.90
3262;DHT22;1643;47.746;9.000;2022-12-24T12:38:05;11.10;99.90
3262;DHT22;1643;47.746;9.000;2022-12-24T12:43:48;11.10;99.90
3262;DHT22;1643;47.746;9.000;2022-12-24T12:54:36;11.20;99.90
3262;DHT22;1643;47.746;9.000;2022-12-24T12:57:09;11.20;99.90
3262;DHT22;1643;47.746;9.000;2022-12-24T12:59:40;11.20;99.90
3262;DHT22;1643;47.746;9.000;2022-12-24T13:05:01;11.20;99.90
3262;DHT22;1643;47.746;9.000;2022-12-24T13:10:35;11.20;99.90
3262;DHT22;1643;47.746;9.000;2022-12-24T13:21:24;11.20;99.90
3262;DHT22;1643;47.746;9.000;2022-12-24T13:23:50;11.20;99.90
3262;DHT22;1643;47.746;9.000;2022-12-24T13:26:28;11.20;99.90
3262;DHT22;1643;47.746;9.000;2022-12-24T13:28:54;11.20;99.90
3262;DHT22;1643;47.746;9.000;2022-12-24T13:31:40;11.20;99.90
3262;DHT22;1643;47.746;9.000;2022-12-24T13:34:32;11.10;99.90
3262;DHT22;1643;47.746;9.000;2022-12-24T13:37:02;11.10;99.90
3262;DHT22;1643;47.746;9.000;2022-12-24T13:42:49;11.20;99.90
3262;DHT22;1643;47.746;9.000;2022-12-24T13:47:53;11.30;99.90
3262;DHT22;1643;47.746;9.000;2022-12-24T13:51:16;11.20;99.90
3262;DHT22;1643;47.746;9.000;2022-12-24T13:58:48;11.20;99.90
3262;DHT22;1643;47.746;9.000;2022-12-24T14:01:18;11.20;99.90
3262;DHT22;1643;47.746;9.000;2022-12-24T14:03:51;11.20;99.90
3262;DHT22;1643;47.746;9.000;2022-12-24T14:06:21;11.20;99.90
3262;DHT22;1643;47.746;9.000;2022-12-24T14:08:49;11.30;99.90
3262;DHT22;1643;47.746;9.000;2022-12-24T14:11:23;11.20;99.90
3262;DHT22;1643;47.746;9.000;2022-12-24T14:13:52;11.30;99.90
3262;DHT22;1643;47.746;9.000;2022-12-24T14:16:23;11.30;99.90
3262;DHT22;1643;47.746;9.000;2022-12-24T14:21:36;11.30;99.90
3262;DHT22;1643;47.746;9.000;2022-12-24T14:24:14;11.30;99.90
3262;DHT22;1643;47.746;9.000;2022-12-24T14:26:56;11.30;99.90
3262;DHT22;1643;47.746;9.000;2022-12-24T14:29:32;11.30;99.90
3262;DHT22;1643;47.746;9.000;2022-12-24T14:31:59;11.30;99.90
3262;DHT22;1643;47.746;9.000;2022-12-24T14:34:29;11.20;99.90
3262;DHT22;1643;47.746;9.000;2022-12-24T14:36:55;11.20;99.90
3262;DHT22;1643;47.746;9.000;2022-12-24T14:39:31;11.10;99.90
3262;DHT22;1643;47.746;9.000;2022-12-24T14:53:15;11.00;99.90
3262;DHT22;1643;47.746;9.000;2022-12-24T14:55:46;11.00;99.90
3262;DHT22;1643;47.746;9.000;2022-12-24T14:58:30;11.00;99.90
3262;DHT22;1643;47.746;9.000;2022-12-24T15:01:01;11.00;99.90
3262;DHT22;1643;47.746;9.000;2022-12-24T15:03:29;10.90;99.90
3262;DHT22;1643;47.746;9.000;2022-12-24T15:06:04;11.00;99.90
3262;DHT22;1643;47.746;9.000;2022-12-24T15:08:43;11.00;99.90
3262;DHT22;1643;47.746;9.000;2022-12-24T15:11:16;11.00;99.90
3262;DHT22;1643;47.746;9.000;2022-12-24T15:13:44;11.00;99.90
3262;DHT22;1643;47.746;9.000;2022-12-24T15:16:13;11.00;99.90
3262;DHT22;1643;47.746;9.000;2022-12-24T15:18:46;11.00;99.90
3262;DHT22;1643;47.746;9.000;2022-12-24T15:21:20;11.00;99.90
3262;DHT22;1643;47.746;9.000;2022-12-24T15:23:48;11.00;99.90
3262;DHT22;1643;47.746;9.000;2022-12-24T15:28:43;11.00;99.90
3262;DHT22;1643;47.746;9.000;2022-12-24T15:31:18;11.00;99.90
3262;DHT22;1643;47.746;9.000;2022-12-24T15:33:49;11.00;99.90
3262;DHT22;1643;47.746;9.000;2022-12-24T15:36:23;11.00;99.90
3262;DHT22;1643;47.746;9.000;2022-12-24T15:38:52;11.00;99.90
3262;DHT22;1643;47.746;9.000;2022-12-24T15:43:46;10.90;99.90
3262;DHT22;1643;47.746;9.000;2022-12-24T15:46:26;10.90;99.90
3262;DHT22;1643;47.746;9.000;2022-12-24T15:48:54;10.80;99.90
3262;DHT22;1643;47.746;9.000;2022-12-24T15:51:23;10.80;99.90
3262;DHT22;1643;47.746;9.000;2022-12-24T15:53:52;10.80;99.90
3262;DHT22;1643;47.746;9.000;2022-12-24T15:56:41;10.80;99.90
3262;DHT22;1643;47.746;9.000;2022-12-24T16:01:52;10.70;99.90
3262;DHT22;1643;47.746;9.000;2022-12-24T16:04:26;10.70;99.90
3262;DHT22;1643;47.746;9.000;2022-12-24T16:06:59;10.60;99.90
3262;DHT22;1643;47.746;9.000;2022-12-24T16:09:43;10.50;99.90
3262;DHT22;1643;47.746;9.000;2022-12-24T16:12:24;10.60;99.90
3262;DHT22;1643;47.746;9.000;2022-12-24T16:14:57;10.50;99.90
3262;DHT22;1643;47.746;9.000;2022-12-24T16:17:27;10.50;99.90
3262;DHT22;1643;47.746;9.000;2022-12-24T16:19:55;10.50;99.90
3262;DHT22;1643;47.746;9.000;2022-12-24T16:22:23;10.50;99.90
3262;DHT22;1643;47.746;9.000;2022-12-24T16:25:01;10.40;99.90
3262;DHT22;1643;47.746;9.000;2022-12-24T16:27:27;10.40;99.90
3262;DHT22;1643;47.746;9.000;2022-12-24T16:29:53;10.40;99.90
3262;DHT22;1643;47.746;9.000;2022-12-24T16:32:33;10.40;99.90
3262;DHT22;1643;47.746;9.000;2022-12-24T16:34:59;10.40;99.90
3262;DHT22;1643;47.746;9.000;2022-12-24T16:37:25;10.40;99.90
3262;DHT22;1643;47.746;9.000;2022-12-24T16:39:51;10.40;99.90
3262;DHT22;1643;47.746;9.000;2022-12-24T16:42:17;10.30;99.90
3262;DHT22;1643;47.746;9.000;2022-12-24T16:45:01;10.30;99.90
3262;DHT22;1643;47.746;9.000;2022-12-24T16:47:29;10.30;99.90
3262;DHT22;1643;47.746;9.000;2022-12-24T16:49:57;10.20;99.90
3262;DHT22;1643;47.746;9.000;2022-12-24T16:52:25;10.30;99.90
3262;DHT22;1643;47.746;9.000;2022-12-24T16:54:53;10.30;99.90
3262;DHT22;1643;47.746;9.000;2022-12-24T16:57:19;10.30;99.90
3262;DHT22;1643;47.746;9.000;2022-12-24T16:59:44;10.20;99.90
3262;DHT22;1643;47.746;9.000;2022-12-24T17:02:16;10.20;99.90
3262;DHT22;1643;47.746;9.000;2022-12-24T17:04:42;10.20;99.90
3262;DHT22;1643;47.746;9.000;2022-12-24T17:07:10;10.20;99.90
3262;DHT22;1643;47.746;9.000;2022-12-24T17:09:36;10.20;99.90
3262;DHT22;1643;47.746;9.000;2022-12-24T17:12:02;10.20;99.90
3262;DHT22;1643;47.746;9.000;2022-12-24T17:14:27;10.20;99.90
3262;DHT22;1643;47.746;9.000;2022-12-24T17:16:53;10.10;99.90
3262;DHT22;1643;47.746;9.000;2022-12-24T17:19:19;10.10;99.90
3262;DHT22;1643;47.746;9.000;2022-12-24T17:21:44;10.10;99.90
3262;DHT22;1643;47.746;9.000;2022-12-24T17:24:10;10.10;99.90
3262;DHT22;1643;47.746;9.000;2022-12-24T17:26:37;10.10;99.90
3262;DHT22;1643;47.746;9.000;2022-12-24T17:29:03;10.10;99.90
3262;DHT22;1643;47.746;9.000;2022-12-24T17:31:30;10.10;99.90
3262;DHT22;1643;47.746;9.000;2022-12-24T17:33:56;10.10;99.90
3262;DHT22;1643;47.746;9.000;2022-12-24T17:36:21;10.10;99.90
3262;DHT22;1643;47.746;9.000;2022-12-24T17:38:47;10.10;99.90
3262;DHT22;1643;47.746;9.000;2022-12-24T17:41:18;10.10;99.90
3262;DHT22;1643;47.746;9.000;2022-12-24T17:43:43;10.20;99.90
3262;DHT22;1643;47.746;9.000;2022-12-24T17:46:12;10.10;99.90
3262;DHT22;1643;47.746;9.000;2022-12-24T17:48:40;10.20;99.90
3262;DHT22;1643;47.746;9.000;2022-12-24T17:51:13;10.20;99.90
3262;DHT22;1643;47.746;9.000;2022-12-24T17:53:40;10.20;99.90
3262;DHT22;1643;47.746;9.000;2022-12-24T17:56:07;10.10;99.90
3262;DHT22;1643;47.746;9.000;2022-12-24T17:58:35;10.10;99.90
3262;DHT22;1643;47.746;9.000;2022-12-24T18:01:00;10.10;99.90
3262;DHT22;1643;47.746;9.000;2022-12-24T18:03:26;10.10;99.90
3262;DHT22;1643;47.746;9.000;2022-12-24T18:05:52;10.10;99.90
3262;DHT22;1643;47.746;9.000;2022-12-24T18:08:18;10.10;99.90